This is the latest recevied weather packets stored in our database for station/object DL7HMX-13. If no packets are shown the sender has not sent any weather packets the latest 10 day(s).
| Time | Temp. | Humidity | Pressure | Rain* | Wind** | Luminosity | Snow |
|---|---|---|---|---|---|---|---|
| 1777833621 | 18.89° C | 43% | 1011.2 hPa | 0 mm | - | 0 W/m² | - |
| 1777833023 | 19.44° C | 41% | 1011 hPa | 0 mm | - | 1 W/m² | - |
| 1777832425 | 20.56° C | 38% | 1010.9 hPa | 0 mm | - | 4 W/m² | - |
| 1777831828 | 21.67° C | 37% | 1010.8 hPa | 0 mm | - | 9 W/m² | - |
| 1777831230 | 22.22° C | 34% | 1010.8 hPa | 0 mm | - | 15 W/m² | - |
| 1777830616 | 23.89° C | 31% | 1010.8 hPa | 0 mm | - | 23 W/m² | - |
| 1777830020 | 24.44° C | 28% | 1010.8 hPa | 0 mm | - | 32 W/m² | - |
| 1777829422 | 25° C | 27% | 1010.8 hPa | 0 mm | - | 39 W/m² | - |
| 1777828825 | 26.11° C | 25% | 1010.7 hPa | 0 mm | - | 56 W/m² | - |
| 1777828228 | 26.67° C | 25% | 1010.8 hPa | 0 mm | - | 69 W/m² | - |
| 1777827631 | 26.67° C | 25% | 1010.7 hPa | 0 mm | - | 79 W/m² | - |
| 1777827017 | 27.22° C | 24% | 1010.8 hPa | 0 mm | - | 85 W/m² | - |
| 1777826420 | 27.22° C | 22% | 1010.7 hPa | 0 mm | - | 100 W/m² | - |
| 1777825823 | 27.22° C | 21% | 1010.6 hPa | 0 mm | - | 116 W/m² | - |
| 1777825226 | 27.22° C | 21% | 1010.8 hPa | 0 mm | - | 127 W/m² | - |
| 1777824628 | 27.22° C | 21% | 1010.7 hPa | 0 mm | - | 137 W/m² | - |
| 1777824032 | 27.78° C | 20% | 1010.8 hPa | 0 mm | - | 203 W/m² | - |
| 1777823417 | 27.78° C | 20% | 1010.9 hPa | 0 mm | - | 230 W/m² | - |
| 1777822820 | 28.33° C | 19% | 1010.9 hPa | 0 mm | - | 259 W/m² | - |
| 1777822222 | 28.33° C | 19% | 1011.1 hPa | 0 mm | - | 299 W/m² | - |
| 1777821626 | 27.78° C | 20% | 1011.2 hPa | 0 mm | - | 332 W/m² | - |
| 1777821028 | 27.78° C | 19% | 1011.3 hPa | 0 mm | - | 361 W/m² | - |
| 1777820430 | 27.78° C | 20% | 1011.4 hPa | 0 mm | - | 373 W/m² | - |
| 1777819831 | 28.33° C | 20% | 1011.5 hPa | 0 mm | - | 400 W/m² | - |
| 1777819217 | 28.33° C | 21% | 1011.6 hPa | 0 mm | - | 440 W/m² | - |
* Rain latest hour (hover to see other rain measurements)
** Current wind speed in m/s (hover to see current wind gust speed)